Ho Chi Minh, Viet Nam

6:19 PM ICT on July 25, 2014 (GMT +0700)
Tansonnhat (VVTS) Elev 62 ft | 10.82 °N, 106.67 °E | Change Station

Current weather conditions updated 19 minutes ago

Mostly Cloudy
Mostly Cloudy
81 °F
Feels Like 88 °F
N
8
Wind Variable Wind from SW

Tomorrow is forecast to be Cooler than today. Thunderstorms.

Today
High -- | Low -- °F
--% Chance of Precip.
Yesterday
High -- | Low -- °F
Precip. -- in
5:40 AM 6:19 PM
Waning Crescent, 2% visible
Pressure 29.74 in
Visibility 6.2 miles
Clouds Scattered Clouds 1500 ft
Mostly Cloudy 4000 ft
Heat Index 88 °F
Dew Point 79 °F
Humidity 94%
Rainfall 0.00 in
Snow Depth Not available.
UV 0 out of 12
Pollen Not available.
Air Quality Not available.
Flu Activity Not available.
METAR VVTS 251100Z 23007KT 9999 SCT015 BKN040 27/26 Q1007 NOSIG

More Conditions Fewer Conditions

Pressure 29.74 in
Visibility 6.2 miles
Clouds Scattered Clouds 1500 ft
Mostly Cloudy 4000 ft
Heat Index 88 °F
Dew Point 79 °F
Humidity 94%
Rainfall 0.00 in
Snow Depth Not available.
UV 0 out of 12
Pollen Not available.
Air Quality Not available.
Flu Activity Not available.
METAR VVTS 251100Z 23007KT 9999 SCT015 BKN040 27/26 Q1007 NOSIG

More Conditions Fewer Conditions

10-Day Weather Forecast

Almanac

Astronomy

Jul. 25, 2014 Rise Set
Actual Time 5:40 AM ICT 6:19 PM ICT
Civil Twilight 5:18 AM ICT 6:41 PM ICT
Nautical Twilight 4:51 AM ICT 7:07 PM ICT
Astronomical Twilight 4:24 AM ICT 7:34 PM ICT
Moon 4:07 AM ICT 4:59 PM ICT
Length of Visible Light 13h 23m
Length of Day
12h 38m
Tomorrow will be 0m 23s shorter.
Waning Crescent, 2% of the Moon is Illuminated
Today
Waning Crescent
Jul 26
New
Aug 3
First Quarter
Aug 10
Full
Aug 17
Last Quarter

Yesterday's Extremes

Country Highs Country Lows

Community

WunderPhotos

Upload Photos

1,737,289 photos uploaded!

Nearby

Snow Depth

Not available.

Earthquake Activity

City Distance Mag. Time & Date
No recent earthquake activity has been reported nearby.
Minimum magnitude displayed is 2.5.

Coastal Water Temperatures

Place Temperature
No Stations Reporting

Nearby Weather Stations

There are no personal weather stations in this area.